X  Zamknij Lotniskowe dane METAR     EHKD De Kooy Airport
Temperatura
6°C Temperatura
4°C Punkt rosy
87% Wilgotność



Wiatr
1 M/S
2 MPH
3 KM/H
2 KTS



Cisza
N
Warunki bieżące

Częściowe zachmurzenie Częściowe zachmurzenie
Ciśnienie 998.98 (hPa) - 29.5 (inHg)
Widoczność 6 (mil) - 9.7 (km)
Lotnisko
Kod lotniska EHKD

Położenie: De Kooy Airport
Odległość: 34 (km)

Metar:
EHKD 250833Z AUTO VRB02KT 9999 FEW006 BKN007 OVC008 06/04 Q0999 GRN TEMPO SCT007 BKN012

Czas: 25-02-2024 09:33 CET